Terminal Aerodrome Forecast
Issued by NWS

Home | Current Version | Previous Version | Text Only | Print | Product List | Glossary On
Versions: 1 2 3 4 5 6 7 8 9 10 11 12
000
FTUS43 KDTX 231120
TAFYIP
TAF
KYIP 231120Z 2312/2412 16008KT P6SM BKN060 OVC100
     FM231800 14013G20KT P6SM SHRA BKN040 OVC060
     FM232000 13014G22KT 4SM RA BR BKN028 OVC040
     FM232300 18015G24KT 5SM -RA BR BKN008 OVC015
     FM240400 24016G27KT P6SM BKN016 OVC040
     FM241000 20012G20KT P6SM BKN028 OVC060=

USA.gov is the U.S. government's official web portal to all federal, state and local government web resources and services.